Latest Weather Observations for Mawson*

IDT60801

Issued at 12:02 pm EST Monday 26 June 2017 (issued every 30 minutes, with the page automatically refreshed every 10 minutes)

About weather observations | Map of weather stations | Latest weather observations for ANT | Other Formats
Station Details ID: 300001 Name: MAWSON Lat: -67.60 Lon: 62.88 Height: 9.9 m
Data from the previous 72 hours. | See also: Recent months at Mawson*
Date/Time
EST
Temp
°C
App
Temp
°C
Dew
Point
°C
Rel
Hum
%
Delta-T
°C
Wind Press
QNH
hPa
Press
MSL
hPa
Rain since
9am
mm
Dir  Spd
km/h
Gust
km/h
Spd
kts
Gust
kts
26/12:00pm -19.2 -35.6 -24.1 65 - SE 67 74 36 40 991.3 - -
26/11:30am -18.5 -33.8 -24.5 59 - SE 61 67 33 36 991.5 - -
26/11:00am -17.8 -32.2 -24.6 55 - SE 56 65 30 35 991.6 - -
26/10:30am -18.2 -32.7 -24.4 58 - SE 57 63 31 34 991.5 - -
26/10:00am -18.3 -32.7 -24.9 56 - SE 56 63 30 34 991.5 991.7 -
26/09:30am -18.5 -33.4 -24.1 61 - SE 59 67 32 36 991.2 - -
26/09:00am -18.7 -34.0 -23.6 65 - SE 61 69 33 37 991.1 - -
26/08:30am -18.1 -33.8 -23.0 65 - SE 63 70 34 38 990.9 - -
26/08:00am -17.6 -32.5 -23.5 60 - SE 59 65 32 35 990.7 - -
26/07:30am -17.9 -32.8 -22.7 66 - SE 59 67 32 36 990.4 - -
26/07:00am -17.8 -32.3 -23.1 63 - SE 57 65 31 35 990.3 990.5 -
26/06:30am -17.2 -30.4 -23.3 59 - SE 50 59 27 32 990.3 - -
26/06:00am -17.5 -31.4 -23.0 62 - SE 54 63 29 34 990.0 - -
26/05:30am -17.2 -31.5 -22.9 61 - SE 56 61 30 33 989.9 - -
26/05:00am -17.6 -31.2 -23.3 61 - SE 52 61 28 33 989.7 - -
26/04:30am -18.3 -32.3 -23.8 62 - SE 54 59 29 32 989.5 - -
26/04:00am -18.4 -34.0 -22.2 72 - SE 63 70 34 38 988.6 988.8 -
26/03:30am -17.6 -33.6 -21.6 71 - SE 65 72 35 39 988.1 - -
26/03:00am -17.2 -31.5 -21.8 67 - SE 56 65 30 35 988.2 - -
26/02:30am -16.7 -31.9 -21.5 66 - SE 61 70 33 38 987.8 - -
26/02:00am -16.5 -31.0 -22.2 61 - SE 57 65 31 35 987.9 - -
26/01:30am -16.3 -29.9 -23.0 56 - SE 52 59 28 32 987.9 - -
26/01:00am -15.7 -28.5 -23.1 53 - SE 48 56 26 30 987.8 988.0 -
26/12:30am -16.1 -29.3 -23.0 55 - SE 50 56 27 30 987.6 - -
26/12:00am -16.3 -29.1 -23.0 56 - SE 48 57 26 31 987.3 - -
 
Date/Time
EST
Temp
°C
App
Temp
°C
Dew
Point
°C
Rel
Hum
%
Delta-T
°C
Wind Press
QNH
hPa
Press
MSL
hPa
Rain since
9am
mm
Dir  Spd
km/h
Gust
km/h
Spd
kts
Gust
kts
25/11:30pm -16.4 -29.2 -22.5 59 - SE 48 52 26 28 987.3 - -
25/11:00pm -16.0 -28.8 -22.7 56 - SE 48 56 26 30 987.1 - -
25/10:30pm -15.6 -28.4 -22.8 54 - SE 48 56 26 30 986.8 - -
25/10:00pm -15.4 -28.6 -22.6 54 - SE 50 56 27 30 986.4 986.6 -
25/09:30pm -15.1 -27.5 -22.3 54 - SE 46 52 25 28 986.4 - -
25/09:00pm -15.5 -27.3 -22.0 57 - SE 43 46 23 25 986.3 - -
25/08:30pm -15.9 -27.3 -21.8 60 - SE 41 46 22 25 986.1 - -
25/08:00pm -15.3 -26.7 -21.1 61 - ESE 41 48 22 26 986.0 - -
25/07:30pm -14.9 -24.8 -20.0 65 - ESE 33 43 18 23 985.6 - -
25/07:00pm -14.6 -25.2 -19.7 65 - ESE 37 46 20 25 985.1 985.3 -
25/06:30pm -14.9 -26.9 -20.2 64 - SE 44 52 24 28 984.8 - -
25/06:00pm -14.5 -26.8 -20.0 63 - SE 46 54 25 29 984.4 - -
25/05:30pm -14.4 -25.8 -20.2 61 - ESE 41 50 22 27 984.4 - -
25/05:00pm -14.4 -25.4 -19.3 66 - ESE 39 48 21 26 984.1 - -
25/04:30pm -14.4 -25.7 -19.0 68 - SE 41 44 22 24 984.1 - -
25/04:00pm -14.1 -25.1 -19.8 62 - SE 39 44 21 24 983.7 983.9 -
25/03:30pm -14.2 -24.0 -19.0 67 - SE 33 43 18 23 983.8 - -
25/03:00pm -14.4 -24.6 -18.6 70 - SE 35 41 19 22 983.7 - -
25/02:30pm -14.6 -24.2 -19.3 67 - ESE 32 41 17 22 983.5 - -
25/02:22pm -14.6 -22.0 -19.5 66 - E 20 24 11 13 983.4 - -
25/02:00pm -14.5 -25.5 -20.3 61 - SE 39 46 21 25 983.2 - -
25/01:30pm -14.3 -24.0 -20.3 60 - ESE 32 41 17 22 982.9 - -
25/01:00pm -14.8 -26.7 -20.1 64 - SE 44 54 24 29 982.6 982.8 -
25/12:30pm -14.5 -26.2 -19.8 64 - SE 43 50 23 27 982.4 - -
25/12:00pm -14.3 -24.9 -19.6 64 - SE 37 48 20 26 982.5 - -
25/11:30am -14.2 -24.4 -19.3 65 - ESE 35 46 19 25 982.4 - -
25/11:00am -14.0 -25.0 -19.1 65 - SE 39 46 21 25 982.2 - -
25/10:30am -14.0 -25.3 -18.9 66 - SE 41 48 22 26 982.2 - -
25/10:00am -14.0 -24.2 -19.3 64 - SE 35 46 19 25 982.0 982.2 -
25/09:30am -14.0 -24.2 -18.9 66 - SE 35 46 19 25 981.9 - -
25/09:00am -13.8 -24.7 -18.6 67 - SE 39 46 21 25 981.6 - -
25/08:30am -13.5 -25.2 -18.6 65 - ESE 43 65 23 35 981.5 - -
25/08:13am -13.5 -23.7 -17.9 69 - SE 35 56 19 30 981.3 - -
25/08:00am -13.8 -26.8 -17.7 72 - ESE 50 59 27 32 981.0 - -
25/07:30am -13.6 -26.2 -18.2 68 - SE 48 61 26 33 981.3 - -
25/07:07am -13.4 -25.7 -18.2 67 - SE 46 65 25 35 981.1 - -
25/07:00am -13.6 -26.6 -17.5 72 - SE 50 63 27 34 980.7 980.9 -
25/06:30am -13.4 -25.6 -17.7 70 - SE 46 63 25 34 980.7 - -
25/06:00am -13.5 -25.2 -18.8 64 - ESE 43 63 23 34 980.7 - -
25/05:40am -13.3 -26.3 -18.1 67 - ESE 50 69 27 37 980.5 - -
25/05:30am -13.4 -27.1 -17.5 71 - ESE 54 67 29 36 980.1 - -
25/05:08am -13.0 -26.4 -18.5 63 - SE 52 72 28 39 980.4 - -
25/05:06am -12.7 -27.8 -17.7 66 - ESE 61 72 33 39 980.0 - -
25/05:04am -13.3 -23.5 -18.1 67 - SE 35 56 19 30 980.3 - -
25/05:00am -13.4 -27.5 -17.7 70 - SE 56 76 30 41 980.3 - -
25/04:58am -13.4 -27.5 -17.0 74 - SE 56 76 30 41 979.9 - -
25/04:30am -13.6 -27.7 -17.2 74 - SE 56 69 30 37 980.1 - -
25/04:00am -12.9 -26.2 -16.5 74 - SE 52 72 28 39 979.8 980.0 -
25/03:30am -13.4 -28.0 -16.2 79 - SE 59 70 32 38 979.6 - -
25/03:00am -13.5 -27.5 -15.6 84 - SE 56 65 30 35 979.9 - -
25/02:30am -13.7 -27.7 -15.5 86 - SE 56 69 30 37 979.9 - -
25/02:00am -13.5 -27.7 -15.8 83 - SE 57 69 31 37 980.2 - -
25/01:30am -13.6 -26.5 -16.1 81 - SE 50 63 27 34 980.1 - -
25/01:29am -13.4 -27.1 -15.9 81 - SE 54 63 29 34 979.8 - -
25/01:26am -12.7 -22.2 -16.0 76 - SSE 32 56 17 30 980.2 - -
25/01:00am -13.3 -25.9 -16.3 78 - ESE 48 70 26 38 979.7 979.9 -
25/12:57am -13.2 -23.3 -16.8 74 - ESE 35 61 19 33 979.9 - -
25/12:30am -13.4 -28.4 -16.6 77 - SE 61 74 33 40 980.0 - -
25/12:00am -13.5 -28.1 -16.2 80 - SE 59 70 32 38 979.9 - -
 
Date/Time
EST
Temp
°C
App
Temp
°C
Dew
Point
°C
Rel
Hum
%
Delta-T
°C
Wind Press
QNH
hPa
Press
MSL
hPa
Rain since
9am
mm
Dir  Spd
km/h
Gust
km/h
Spd
kts
Gust
kts
24/11:30pm -13.2 -27.4 -15.9 80 - SE 57 72 31 39 979.8 - -
24/11:16pm -13.0 -27.2 -15.7 80 - SE 57 76 31 41 979.8 - -
24/11:00pm -13.2 -26.8 -15.2 85 - SE 54 65 29 35 979.7 - -
24/10:30pm -13.0 -27.0 -15.1 84 - SE 56 65 30 35 979.7 - -
24/10:00pm -13.1 -27.3 -15.4 83 - SE 57 69 31 37 979.6 979.8 -
24/09:30pm -13.1 -27.2 -16.1 78 - SE 56 65 30 35 979.6 - -
24/09:00pm -13.1 -27.1 -15.8 80 - SE 56 65 30 35 979.6 - -
24/08:30pm -13.1 -26.4 -16.1 78 - SE 52 61 28 33 979.5 - -
24/08:00pm -12.8 -25.7 -16.0 77 - SE 50 56 27 30 979.8 - -
24/07:30pm -12.8 -25.7 -15.7 79 - SE 50 59 27 32 979.8 - -
24/07:00pm -12.5 -25.0 -15.5 78 - SE 48 59 26 32 979.9 980.1 -
24/06:30pm -12.5 -24.1 -15.8 76 - SE 43 48 23 26 979.9 - -
24/06:00pm -12.3 -23.5 -16.1 73 - SE 41 50 22 27 979.9 - -
24/05:30pm -12.4 -23.2 -15.6 77 - SE 39 48 21 26 979.7 - -
24/05:00pm -12.4 -23.2 -15.4 78 - SE 39 46 21 25 979.6 - -
24/04:30pm -12.3 -23.9 -15.5 77 - SE 43 52 23 28 979.5 - -
24/04:00pm -12.3 -23.1 -15.0 80 - SE 39 48 21 26 979.6 979.8 -
24/03:30pm -12.1 -22.9 -15.8 74 - SE 39 46 21 25 979.5 - -
24/03:03pm -12.3 -23.9 -16.1 73 - SE 43 61 23 33 979.5 - -
24/03:00pm -12.2 -23.4 -16.4 71 - SE 41 50 22 27 979.6 - -
24/02:30pm -12.6 -25.1 -15.6 78 - SE 48 63 26 34 979.3 - -
24/02:00pm -12.3 -24.8 -15.3 78 - SE 48 61 26 33 979.1 - -
24/01:30pm -12.5 -25.4 -14.8 83 - SE 50 63 27 34 979.2 - -
24/01:00pm -12.8 -26.8 -14.8 85 - SE 56 65 30 35 978.9 979.1 -
24/12:30pm -12.7 -26.9 -14.4 87 - SE 57 65 31 35 978.9 - -
24/12:00pm -13.0 -27.6 -14.7 87 - SE 59 69 32 37 978.7 - -
24/11:30am -13.1 -27.7 -14.9 86 - SE 59 72 32 39 978.7 - -
24/11:00am -12.1 -26.1 -14.5 82 - SE 56 70 30 38 978.7 - -
24/10:30am -12.5 -28.2 -14.6 84 - SE 65 72 35 39 978.3 - -
24/10:00am -12.8 -29.8 -14.5 87 - SE 72 83 39 45 977.9 978.0 -
24/09:43am -12.6 -30.3 -13.9 90 - SE 76 95 41 51 977.7 - -
24/09:30am -13.1 -30.9 -14.4 90 - SE 76 93 41 50 977.8 - -
24/09:00am -13.8 -30.3 -15.3 88 - SE 69 87 37 47 978.3 - -
24/08:30am -13.8 -31.7 -16.2 82 - SE 76 87 41 47 978.1 - -
24/08:26am -13.5 -32.1 -16.0 81 - SE 80 87 43 47 978.3 - -
24/08:06am -12.7 -27.3 -15.3 81 - SE 59 78 32 42 978.3 - -
24/08:00am -12.9 -27.1 -15.3 82 - SE 57 72 31 39 978.3 - -
24/07:30am -13.1 -27.1 -15.7 81 - SE 56 76 30 41 978.5 - -
24/07:00am -13.3 -30.1 -16.8 75 - SE 70 91 38 49 978.1 978.3 -
24/06:49am -13.6 -28.7 -16.9 76 - SE 61 83 33 45 978.5 - -
24/06:37am -13.4 -28.1 -16.7 76 - SE 59 67 32 36 978.5 - -
24/06:32am -14.0 -32.3 -16.8 79 - SE 78 96 42 52 978.1 - -
24/06:30am -14.0 -32.7 -16.8 79 - SE 80 96 43 52 978.1 - -
24/06:00am -15.0 -34.6 -16.7 87 - SE 85 102 46 55 977.8 - -
24/05:30am -15.1 -33.4 -16.9 86 - SE 78 102 42 55 978.4 - -
24/05:00am -15.1 -33.8 -17.3 83 - SE 80 104 43 56 978.4 - -
24/04:30am -15.2 -34.4 -17.0 86 - SE 83 106 45 57 978.8 - -
24/04:00am -15.4 -34.6 -17.1 87 - SE 83 102 45 55 979.3 979.5 -
24/03:30am -16.2 -36.6 -17.8 87 - SE 89 102 48 55 978.6 - -
24/03:07am -16.1 -35.4 -17.9 86 - SE 83 102 45 55 979.2 - -
24/03:00am -16.2 -35.8 -17.8 87 - SE 85 100 46 54 979.2 - -
24/02:30am -16.1 -35.2 -18.0 85 - SE 82 102 44 55 979.3 - -
24/02:14am -16.5 -36.6 -18.3 86 - SE 87 106 47 57 979.1 - -
24/02:00am -16.5 -36.2 -18.3 86 - SE 85 100 46 54 979.6 - -
24/01:30am -16.6 -34.6 -18.8 83 - SE 76 98 41 53 980.2 - -
24/01:00am -16.5 -35.2 -18.7 83 - SE 80 106 43 57 980.5 980.7 -
24/12:30am -16.8 -35.2 -19.1 82 - SE 78 96 42 52 980.9 - -
24/12:25am -16.7 -35.1 -19.0 82 - SE 78 96 42 52 980.9 - -
24/12:00am -16.6 -35.4 -19.4 79 - SE 80 91 43 49 980.6 - -
 
Date/Time
EST
Temp
°C
App
Temp
°C
Dew
Point
°C
Rel
Hum
%
Delta-T
°C
Wind Press
QNH
hPa
Press
MSL
hPa
Rain since
9am
mm
Dir  Spd
km/h
Gust
km/h
Spd
kts
Gust
kts
23/11:49pm -16.4 -34.8 -18.9 81 - SE 78 96 42 52 980.6 - -
23/11:30pm -16.8 -34.4 -19.4 80 - SE 74 91 40 49 981.1 - -
23/11:19pm -16.8 -35.2 -19.4 80 - SE 78 96 42 52 981.5 - -
23/11:17pm -16.7 -36.8 -19.2 81 - SE 87 96 47 52 980.9 - -
23/11:00pm -16.3 -33.0 -19.5 76 - SE 69 93 37 50 981.2 - -
23/10:30pm -16.7 -33.6 -19.9 76 - SE 70 91 38 49 981.9 - -
23/10:27pm -16.8 -33.7 -19.7 78 - SE 70 89 38 48 981.5 - -
23/10:00pm -17.2 -33.5 -20.9 73 - SE 67 80 36 43 982.2 982.4 -
23/09:37pm -16.9 -32.9 -21.0 70 - SE 65 83 35 45 982.4 - -
23/09:30pm -17.0 -33.7 -21.0 71 - SE 69 83 37 45 982.3 - -
23/09:00pm -17.4 -35.1 -21.1 73 - SE 74 87 40 47 982.1 - -
23/08:30pm -17.6 -35.3 -21.1 74 - SE 74 87 40 47 982.3 - -
23/08:00pm -17.8 -36.2 -20.7 78 - SE 78 89 42 48 982.1 - -
23/07:30pm -17.9 -35.6 -21.2 75 - ESE 74 83 40 45 982.8 - -
23/07:26pm -17.9 -36.0 -21.1 76 - ESE 76 83 41 45 982.7 - -
23/07:00pm -17.9 -32.4 -21.5 73 - ESE 57 76 31 41 983.6 983.8 -
23/06:57pm -17.9 -32.2 -21.7 72 - ESE 56 74 30 40 983.7 - -
23/06:30pm -18.1 -33.0 -22.5 68 - ESE 59 69 32 37 984.1 - -
23/06:00pm -17.9 -32.8 -21.9 71 - ESE 59 74 32 40 984.0 - -
23/05:30pm -17.9 -34.3 -21.1 76 - ESE 67 78 36 42 983.8 - -
23/05:00pm -17.9 -33.5 -21.1 76 - ESE 63 76 34 41 983.9 - -
23/04:30pm -18.1 -34.5 -21.3 76 - ESE 67 80 36 43 984.2 - -
23/04:21pm -18.2 -34.2 -21.7 74 - ESE 65 70 35 38 984.7 - -

Other Formats:

Comma delimited format used in spreadsheet applications
http://www.bom.gov.au/fwo/IDT60803/IDT60803.89564.axf

JavaScript Object Notation format (JSON) in row-major order
http://www.bom.gov.au/fwo/IDT60803/IDT60803.89564.json